sensor_id;sensor_type;location;lat;lon;timestamp;P1;durP1;ratioP1;P2;durP2;ratioP2
57313;SDS011;53202;50.976;18.216;2022-12-29T00:09:30;11.50;;;10.30;;
57313;SDS011;53202;50.976;18.216;2022-12-29T00:19:29;17.00;;;8.90;;
57313;SDS011;53202;50.976;18.216;2022-12-29T00:30:24;11.20;;;7.10;;
57313;SDS011;53202;50.976;18.216;2022-12-29T00:41:05;16.00;;;6.40;;
57313;SDS011;53202;50.976;18.216;2022-12-29T00:51:35;16.20;;;8.60;;
57313;SDS011;53202;50.976;18.216;2022-12-29T01:01:19;18.40;;;6.20;;
57313;SDS011;53202;50.976;18.216;2022-12-29T01:11:04;9.60;;;6.10;;
57313;SDS011;53202;50.976;18.216;2022-12-29T01:20:49;8.90;;;5.60;;
57313;SDS011;53202;50.976;18.216;2022-12-29T01:30:34;3.00;;;2.20;;
57313;SDS011;53202;50.976;18.216;2022-12-29T01:40:18;15.90;;;8.30;;
57313;SDS011;53202;50.976;18.216;2022-12-29T01:50:10;13.30;;;7.70;;
57313;SDS011;53202;50.976;18.216;2022-12-29T02:00:02;16.30;;;7.60;;
57313;SDS011;53202;50.976;18.216;2022-12-29T02:09:50;9.00;;;5.60;;
57313;SDS011;53202;50.976;18.216;2022-12-29T02:19:51;7.10;;;5.60;;
57313;SDS011;53202;50.976;18.216;2022-12-29T02:30:36;6.20;;;5.60;;
57313;SDS011;53202;50.976;18.216;2022-12-29T02:41:03;8.60;;;5.90;;
57313;SDS011;53202;50.976;18.216;2022-12-29T02:51:04;5.80;;;3.90;;
57313;SDS011;53202;50.976;18.216;2022-12-29T03:01:17;1.60;;;1.50;;
57313;SDS011;53202;50.976;18.216;2022-12-29T03:11:59;23.80;;;7.80;;
57313;SDS011;53202;50.976;18.216;2022-12-29T03:22:25;13.30;;;7.00;;
57313;SDS011;53202;50.976;18.216;2022-12-29T03:32:20;13.10;;;6.20;;
57313;SDS011;53202;50.976;18.216;2022-12-29T03:42:09;10.70;;;7.40;;
57313;SDS011;53202;50.976;18.216;2022-12-29T03:51:58;6.50;;;5.90;;
57313;SDS011;53202;50.976;18.216;2022-12-29T04:01:41;6.60;;;4.80;;
57313;SDS011;53202;50.976;18.216;2022-12-29T04:11:25;13.60;;;7.10;;
57313;SDS011;53202;50.976;18.216;2022-12-29T04:21:09;22.20;;;14.90;;
57313;SDS011;53202;50.976;18.216;2022-12-29T04:30:53;31.90;;;10.20;;
57313;SDS011;53202;50.976;18.216;2022-12-29T04:40:38;10.30;;;7.00;;
57313;SDS011;53202;50.976;18.216;2022-12-29T04:57:40;12.20;;;7.30;;
57313;SDS011;53202;50.976;18.216;2022-12-29T05:07:24;31.00;;;13.60;;
57313;SDS011;53202;50.976;18.216;2022-12-29T05:17:08;20.60;;;6.00;;
57313;SDS011;53202;50.976;18.216;2022-12-29T05:26:52;28.70;;;7.50;;
57313;SDS011;53202;50.976;18.216;2022-12-29T05:36:36;5.80;;;4.50;;
57313;SDS011;53202;50.976;18.216;2022-12-29T06:00:55;7.80;;;4.00;;
57313;SDS011;53202;50.976;18.216;2022-12-29T06:10:39;20.10;;;10.50;;
57313;SDS011;53202;50.976;18.216;2022-12-29T06:20:24;11.50;;;9.10;;
57313;SDS011;53202;50.976;18.216;2022-12-29T06:30:08;7.10;;;6.00;;
57313;SDS011;53202;50.976;18.216;2022-12-29T06:39:53;16.80;;;6.40;;
57313;SDS011;53202;50.976;18.216;2022-12-29T06:49:38;8.90;;;5.70;;
57313;SDS011;53202;50.976;18.216;2022-12-29T06:59:23;17.80;;;10.60;;
57313;SDS011;53202;50.976;18.216;2022-12-29T07:09:07;26.20;;;13.40;;
57313;SDS011;53202;50.976;18.216;2022-12-29T07:18:52;14.90;;;7.70;;
57313;SDS011;53202;50.976;18.216;2022-12-29T07:28:37;14.50;;;8.30;;
57313;SDS011;53202;50.976;18.216;2022-12-29T07:38:21;11.60;;;4.60;;
57313;SDS011;53202;50.976;18.216;2022-12-29T07:48:05;24.40;;;11.30;;
57313;SDS011;53202;50.976;18.216;2022-12-29T07:57:53;34.90;;;10.20;;
57313;SDS011;53202;50.976;18.216;2022-12-29T08:14:56;20.60;;;8.70;;
57313;SDS011;53202;50.976;18.216;2022-12-29T08:24:40;87.30;;;7.50;;
57313;SDS011;53202;50.976;18.216;2022-12-29T08:34:24;12.30;;;8.20;;
57313;SDS011;53202;50.976;18.216;2022-12-29T08:44:07;20.40;;;9.70;;
57313;SDS011;53202;50.976;18.216;2022-12-29T08:53:54;28.40;;;13.40;;
57313;SDS011;53202;50.976;18.216;2022-12-29T09:03:39;26.30;;;8.90;;
57313;SDS011;53202;50.976;18.216;2022-12-29T09:13:31;17.50;;;7.60;;
57313;SDS011;53202;50.976;18.216;2022-12-29T09:23:21;12.60;;;9.10;;
57313;SDS011;53202;50.976;18.216;2022-12-29T09:33:04;22.90;;;7.40;;
57313;SDS011;53202;50.976;18.216;2022-12-29T09:43:05;18.40;;;10.40;;
57313;SDS011;53202;50.976;18.216;2022-12-29T09:53:29;27.00;;;13.10;;
57313;SDS011;53202;50.976;18.216;2022-12-29T10:03:20;14.60;;;9.40;;
57313;SDS011;53202;50.976;18.216;2022-12-29T10:13:27;14.60;;;7.70;;
57313;SDS011;53202;50.976;18.216;2022-12-29T10:23:38;6.50;;;3.90;;
57313;SDS011;53202;50.976;18.216;2022-12-29T10:33:39;6.80;;;2.00;;
57313;SDS011;53202;50.976;18.216;2022-12-29T10:38:44;16.40;;;9.30;;
57313;SDS011;53202;50.976;18.216;2022-12-29T10:48:39;7.30;;;5.10;;
57313;SDS011;53202;50.976;18.216;2022-12-29T10:58:35;23.30;;;12.50;;
57313;SDS011;53202;50.976;18.216;2022-12-29T11:08:39;72.50;;;9.60;;
57313;SDS011;53202;50.976;18.216;2022-12-29T11:18:57;8.80;;;6.30;;
57313;SDS011;53202;50.976;18.216;2022-12-29T11:29:15;13.50;;;9.10;;
57313;SDS011;53202;50.976;18.216;2022-12-29T11:49:23;18.40;;;11.90;;
57313;SDS011;53202;50.976;18.216;2022-12-29T12:10:12;14.90;;;12.20;;
57313;SDS011;53202;50.976;18.216;2022-12-29T12:20:40;10.30;;;7.30;;
57313;SDS011;53202;50.976;18.216;2022-12-29T12:30:48;14.80;;;12.60;;
57313;SDS011;53202;50.976;18.216;2022-12-29T13:13:31;14.50;;;8.40;;
57313;SDS011;53202;50.976;18.216;2022-12-29T13:35:24;16.10;;;10.90;;
57313;SDS011;53202;50.976;18.216;2022-12-29T13:45:16;14.20;;;7.50;;
57313;SDS011;53202;50.976;18.216;2022-12-29T13:55:29;13.00;;;8.40;;
57313;SDS011;53202;50.976;18.216;2022-12-29T14:13:20;28.80;;;12.80;;
57313;SDS011;53202;50.976;18.216;2022-12-29T14:34:29;34.30;;;18.20;;
57313;SDS011;53202;50.976;18.216;2022-12-29T14:54:50;44.50;;;22.20;;
57313;SDS011;53202;50.976;18.216;2022-12-29T15:04:46;29.20;;;18.20;;
57313;SDS011;53202;50.976;18.216;2022-12-29T15:14:54;39.10;;;18.60;;
57313;SDS011;53202;50.976;18.216;2022-12-29T15:24:45;48.10;;;29.70;;
57313;SDS011;53202;50.976;18.216;2022-12-29T15:34:52;35.80;;;22.00;;
57313;SDS011;53202;50.976;18.216;2022-12-29T15:44:48;29.80;;;19.60;;
57313;SDS011;53202;50.976;18.216;2022-12-29T15:54:34;19.20;;;13.00;;
57313;SDS011;53202;50.976;18.216;2022-12-29T16:04:22;70.00;;;28.00;;
57313;SDS011;53202;50.976;18.216;2022-12-29T16:14:29;28.90;;;16.90;;
57313;SDS011;53202;50.976;18.216;2022-12-29T16:24:19;21.10;;;15.20;;
57313;SDS011;53202;50.976;18.216;2022-12-29T16:34:28;43.80;;;18.20;;
57313;SDS011;53202;50.976;18.216;2022-12-29T16:44:19;34.50;;;19.60;;
57313;SDS011;53202;50.976;18.216;2022-12-29T16:54:36;42.10;;;16.80;;
57313;SDS011;53202;50.976;18.216;2022-12-29T17:04:23;43.00;;;22.70;;
57313;SDS011;53202;50.976;18.216;2022-12-29T17:29:15;29.70;;;15.70;;
57313;SDS011;53202;50.976;18.216;2022-12-29T17:39:02;27.50;;;19.30;;
57313;SDS011;53202;50.976;18.216;2022-12-29T17:48:47;64.30;;;33.80;;
57313;SDS011;53202;50.976;18.216;2022-12-29T17:58:32;21.10;;;19.00;;
57313;SDS011;53202;50.976;18.216;2022-12-29T18:08:26;27.50;;;9.90;;
57313;SDS011;53202;50.976;18.216;2022-12-29T18:18:18;6.40;;;5.90;;
57313;SDS011;53202;50.976;18.216;2022-12-29T18:28:22;23.40;;;17.80;;
57313;SDS011;53202;50.976;18.216;2022-12-29T18:38:22;32.20;;;21.10;;
57313;SDS011;53202;50.976;18.216;2022-12-29T18:55:28;34.40;;;24.00;;
57313;SDS011;53202;50.976;18.216;2022-12-29T19:05:23;65.30;;;30.40;;
57313;SDS011;53202;50.976;18.216;2022-12-29T19:15:13;37.90;;;21.80;;
57313;SDS011;53202;50.976;18.216;2022-12-29T19:25:24;38.20;;;23.20;;
57313;SDS011;53202;50.976;18.216;2022-12-29T19:35:11;38.30;;;9.70;;
57313;SDS011;53202;50.976;18.216;2022-12-29T19:45:02;41.00;;;28.30;;
57313;SDS011;53202;50.976;18.216;2022-12-29T19:54:49;50.20;;;20.90;;
57313;SDS011;53202;50.976;18.216;2022-12-29T20:04:38;15.00;;;12.10;;
57313;SDS011;53202;50.976;18.216;2022-12-29T20:14:22;74.10;;;40.20;;
57313;SDS011;53202;50.976;18.216;2022-12-29T20:24:06;31.70;;;20.20;;
57313;SDS011;53202;50.976;18.216;2022-12-29T20:33:54;47.60;;;20.10;;
57313;SDS011;53202;50.976;18.216;2022-12-29T20:43:40;29.00;;;21.30;;
57313;SDS011;53202;50.976;18.216;2022-12-29T20:53:25;65.30;;;26.70;;
57313;SDS011;53202;50.976;18.216;2022-12-29T21:03:09;40.60;;;25.40;;
57313;SDS011;53202;50.976;18.216;2022-12-29T21:12:56;24.80;;;9.70;;
57313;SDS011;53202;50.976;18.216;2022-12-29T21:30:12;20.50;;;16.30;;
57313;SDS011;53202;50.976;18.216;2022-12-29T21:39:56;44.50;;;27.10;;
57313;SDS011;53202;50.976;18.216;2022-12-29T21:57:29;33.70;;;23.70;;
57313;SDS011;53202;50.976;18.216;2022-12-29T22:08:08;26.70;;;19.70;;
57313;SDS011;53202;50.976;18.216;2022-12-29T22:18:22;39.80;;;24.10;;
57313;SDS011;53202;50.976;18.216;2022-12-29T22:28:05;28.00;;;20.40;;
57313;SDS011;53202;50.976;18.216;2022-12-29T22:37:52;72.10;;;29.80;;
57313;SDS011;53202;50.976;18.216;2022-12-29T22:47:36;47.90;;;23.40;;
57313;SDS011;53202;50.976;18.216;2022-12-29T23:04:37;40.30;;;22.50;;
57313;SDS011;53202;50.976;18.216;2022-12-29T23:14:21;34.80;;;22.10;;
57313;SDS011;53202;50.976;18.216;2022-12-29T23:24:05;20.20;;;15.20;;
57313;SDS011;53202;50.976;18.216;2022-12-29T23:33:51;33.10;;;20.10;;
57313;SDS011;53202;50.976;18.216;2022-12-29T23:38:47;34.50;;;22.00;;
57313;SDS011;53202;50.976;18.216;2022-12-29T23:48:31;35.40;;;19.40;;
57313;SDS011;53202;50.976;18.216;2022-12-29T23:58:17;34.90;;;26.10;;
